createdAt,value
2022-09-06T03:38:22.611Z,18.68
2022-09-06T03:39:23.528Z,18.60
2022-09-06T03:40:23.510Z,18.59
2022-09-06T03:41:23.514Z,18.57
2022-09-06T03:42:23.477Z,18.54
2022-09-06T03:43:23.488Z,18.51
2022-09-06T03:44:23.480Z,18.49
2022-09-06T03:45:23.491Z,18.46
2022-09-06T03:46:23.492Z,18.42
2022-09-06T03:47:23.434Z,18.42
2022-09-06T03:48:23.510Z,18.39
2022-09-06T03:49:23.447Z,18.39
2022-09-06T03:50:23.432Z,18.35
2022-09-06T03:51:23.420Z,18.34
2022-09-06T03:52:29.981Z,18.32
2022-09-06T03:53:23.373Z,18.32
2022-09-06T03:54:23.357Z,18.32
2022-09-06T03:55:23.324Z,18.32
2022-09-06T03:56:29.851Z,18.31
2022-09-06T03:57:23.323Z,18.29
2022-09-06T03:58:23.393Z,18.26
2022-09-06T03:59:23.306Z,18.19
2022-09-06T04:00:23.272Z,18.11
2022-09-06T04:01:23.357Z,18.10
2022-09-06T04:02:23.326Z,18.04
2022-09-06T04:03:23.247Z,18.04
2022-09-06T04:04:23.233Z,18.04
2022-09-06T04:05:23.219Z,18.01
2022-09-06T04:06:23.209Z,17.96
2022-09-06T04:07:23.206Z,17.91
2022-09-06T04:08:23.226Z,17.86
2022-09-06T04:09:23.245Z,17.81
2022-09-06T04:10:23.172Z,17.74
2022-09-06T04:11:23.175Z,17.68
2022-09-06T04:12:23.153Z,17.65
2022-09-06T04:13:23.134Z,17.62
2022-09-06T04:14:23.137Z,17.57
2022-09-06T04:15:23.103Z,17.54
2022-09-06T04:16:29.723Z,17.51
2022-09-06T04:17:23.095Z,17.54
2022-09-06T04:18:23.185Z,17.54
2022-09-06T04:19:23.079Z,17.54
2022-09-06T04:20:23.061Z,17.53
2022-09-06T04:21:23.036Z,17.49
2022-09-06T04:22:23.037Z,17.47
2022-09-06T04:23:23.023Z,17.46
2022-09-06T04:24:23.029Z,17.46
2022-09-06T04:25:23.002Z,17.45
2022-09-06T04:26:23.013Z,17.43
2022-09-06T04:27:22.997Z,17.39
2022-09-06T04:28:23.115Z,17.38
2022-09-06T04:29:22.946Z,17.33
2022-09-06T04:30:22.958Z,17.32
2022-09-06T04:31:22.974Z,17.32
2022-09-06T04:32:22.923Z,17.30
2022-09-06T04:33:22.901Z,17.32
2022-09-06T04:34:22.898Z,17.30
2022-09-06T04:35:22.879Z,17.28
2022-09-06T04:36:22.917Z,17.28
2022-09-06T04:37:22.879Z,17.32
2022-09-06T04:38:22.945Z,17.32
2022-09-06T04:39:23.720Z,17.32
2022-09-06T04:40:22.818Z,17.32
2022-09-06T04:41:22.840Z,17.32
2022-09-06T04:42:22.808Z,17.33
2022-09-06T04:43:22.818Z,17.33
2022-09-06T04:44:22.794Z,17.35
2022-09-06T04:45:22.818Z,17.32
2022-09-06T04:46:22.876Z,17.33
2022-09-06T04:47:22.741Z,17.32
2022-09-06T04:48:22.754Z,17.30
2022-09-06T04:49:22.737Z,17.27
2022-09-06T04:50:22.726Z,17.22
2022-09-06T04:51:22.712Z,17.20
2022-09-06T04:52:25.943Z,17.17
2022-09-06T04:53:22.693Z,17.15
2022-09-06T04:54:22.664Z,17.17
2022-09-06T04:55:22.658Z,17.17
2022-09-06T04:56:29.177Z,17.18
2022-09-06T04:57:22.643Z,17.20
2022-09-06T04:58:22.723Z,17.17
2022-09-06T04:59:22.618Z,17.17
2022-09-06T05:00:22.617Z,17.17
2022-09-06T05:01:22.725Z,17.21
2022-09-06T05:02:22.645Z,17.20
2022-09-06T05:03:22.582Z,17.20
2022-09-06T05:04:22.604Z,17.18
2022-09-06T05:05:22.552Z,17.15
2022-09-06T05:06:22.534Z,17.17
2022-09-06T05:07:22.538Z,17.18
2022-09-06T05:08:22.603Z,17.17
2022-09-06T05:09:22.736Z,17.20
2022-09-06T05:10:22.543Z,17.21
2022-09-06T05:11:22.518Z,17.17
2022-09-06T05:12:22.488Z,17.15
2022-09-06T05:13:22.455Z,17.10
2022-09-06T05:14:22.455Z,17.07
2022-09-06T05:15:22.430Z,17.07
2022-09-06T05:16:22.507Z,17.07
2022-09-06T05:17:22.410Z,17.05
2022-09-06T05:18:22.418Z,17.05
2022-09-06T05:19:22.399Z,17.05
2022-09-06T05:20:22.375Z,17.06
2022-09-06T05:21:22.381Z,17.03
2022-09-06T05:22:22.389Z,17.03
2022-09-06T05:23:22.355Z,17.03
2022-09-06T05:24:22.341Z,17.02
2022-09-06T05:25:22.317Z,17.02
2022-09-06T05:26:22.311Z,17.02
2022-09-06T05:27:22.318Z,16.99
2022-09-06T05:28:22.401Z,16.99
2022-09-06T05:29:22.275Z,17.00
2022-09-06T05:30:22.288Z,17.02
2022-09-06T05:31:22.340Z,17.05
2022-09-06T05:32:22.247Z,17.05
2022-09-06T05:33:22.242Z,17.03
2022-09-06T05:34:22.236Z,17.03
2022-09-06T05:35:22.222Z,17.05
2022-09-06T05:36:22.207Z,17.09
2022-09-06T05:37:22.195Z,17.10
2022-09-06T05:38:22.188Z,17.14
2022-09-06T05:39:22.253Z,17.17
2022-09-06T05:40:22.169Z,17.20
2022-09-06T05:41:22.212Z,17.22
2022-09-06T05:42:22.161Z,17.25
2022-09-06T05:43:22.120Z,17.30
2022-09-06T05:44:22.120Z,17.33
2022-09-06T05:45:22.183Z,17.35
2022-09-06T05:46:22.102Z,17.33
2022-09-06T05:47:22.081Z,17.36
2022-09-06T05:48:22.154Z,17.38
2022-09-06T05:49:22.054Z,17.40
2022-09-06T05:50:22.087Z,17.40
2022-09-06T05:51:22.076Z,17.42
2022-09-06T05:52:22.018Z,17.42
2022-09-06T05:53:22.008Z,17.42
2022-09-06T05:54:22.052Z,17.42
2022-09-06T05:55:22.010Z,17.45
2022-09-06T05:56:21.997Z,17.47
2022-09-06T05:57:22.046Z,17.49
2022-09-06T05:58:22.026Z,17.54
2022-09-06T05:59:21.953Z,17.55
2022-09-06T06:00:21.945Z,17.57
2022-09-06T06:01:22.041Z,17.57
2022-09-06T06:02:21.960Z,17.58
2022-09-06T06:03:21.921Z,17.60
2022-09-06T06:04:21.887Z,17.60
2022-09-06T06:05:21.886Z,17.63
2022-09-06T06:06:21.898Z,17.66
2022-09-06T06:07:21.849Z,17.68
2022-09-06T06:08:21.917Z,17.71
2022-09-06T06:09:21.840Z,17.71
2022-09-06T06:10:21.833Z,17.76
2022-09-06T06:11:21.817Z,17.77
2022-09-06T06:12:21.867Z,17.80
2022-09-06T06:13:21.795Z,17.81
2022-09-06T06:14:21.811Z,17.84
2022-09-06T06:15:22.669Z,17.89
2022-09-06T06:16:21.790Z,17.91
2022-09-06T06:17:21.800Z,17.94
2022-09-06T06:18:21.813Z,17.96
2022-09-06T06:19:21.729Z,17.98
2022-09-06T06:20:21.724Z,18.02
2022-09-06T06:21:21.730Z,18.05
2022-09-06T06:22:21.683Z,18.10
2022-09-06T06:23:21.684Z,18.14
2022-09-06T06:24:21.689Z,18.19
2022-09-06T06:25:21.652Z,18.23
2022-09-06T06:26:21.654Z,18.29
2022-09-06T06:27:21.626Z,18.32
2022-09-06T06:28:21.647Z,18.38
2022-09-06T06:29:21.611Z,18.41
2022-09-06T06:30:21.642Z,18.46
2022-09-06T06:31:21.625Z,18.49
2022-09-06T06:32:21.603Z,18.53
2022-09-06T06:33:21.603Z,18.56
2022-09-06T06:34:21.623Z,18.59
2022-09-06T06:35:21.540Z,18.65
2022-09-06T06:36:21.545Z,18.66
2022-09-06T06:37:21.543Z,18.71
2022-09-06T06:38:21.574Z,18.72
2022-09-06T06:39:21.537Z,18.76
2022-09-06T06:40:21.484Z,18.76
2022-09-06T06:41:21.477Z,18.83
2022-09-06T06:42:21.463Z,18.86
2022-09-06T06:43:21.504Z,18.90
2022-09-06T06:44:21.462Z,18.96
2022-09-06T06:45:21.434Z,19.02
2022-09-06T06:46:21.452Z,19.07
2022-09-06T06:47:21.435Z,19.12
2022-09-06T06:48:21.531Z,19.16
2022-09-06T06:49:21.394Z,19.21
2022-09-06T06:50:21.392Z,19.24
2022-09-06T06:51:21.403Z,19.28
2022-09-06T06:52:21.387Z,19.34
2022-09-06T06:53:21.359Z,19.35
2022-09-06T06:54:21.544Z,19.40
2022-09-06T06:55:21.373Z,19.43
2022-09-06T06:56:21.344Z,19.47
2022-09-06T06:57:21.313Z,19.52
2022-09-06T06:58:21.305Z,19.53
2022-09-06T06:59:21.277Z,19.57
2022-09-06T07:00:24.068Z,19.60
2022-09-06T07:01:21.469Z,19.62
2022-09-06T07:02:21.321Z,19.64
2022-09-06T07:03:21.254Z,19.68
2022-09-06T07:04:21.270Z,19.72
2022-09-06T07:06:21.303Z,19.85
2022-09-06T07:07:38.158Z,19.90
2022-09-06T07:08:21.238Z,20.01
2022-09-06T07:09:21.232Z,20.05
2022-09-06T07:10:36.523Z,20.10
2022-09-06T07:11:24.311Z,20.16
2022-09-06T07:12:21.164Z,20.19
2022-09-06T07:13:21.368Z,20.25
2022-09-06T07:14:21.149Z,20.27
2022-09-06T07:15:21.123Z,20.35
2022-09-06T07:16:21.182Z,20.40
2022-09-06T07:17:21.106Z,20.42
2022-09-06T07:18:21.064Z,20.48
2022-09-06T07:20:21.087Z,20.56
2022-09-06T07:22:21.043Z,20.60
2022-09-06T07:24:21.022Z,20.68
2022-09-06T07:25:21.669Z,20.73
2022-09-06T07:26:21.025Z,20.76
2022-09-06T07:28:20.987Z,20.87
2022-09-06T07:29:20.974Z,20.93
2022-09-06T07:30:20.985Z,20.98
2022-09-06T07:32:20.952Z,21.11
2022-09-06T07:33:21.107Z,21.18
2022-09-06T07:34:21.063Z,21.22
2022-09-06T07:35:20.902Z,21.26
2022-09-06T07:36:20.883Z,21.30
2022-09-06T07:37:20.981Z,21.36
2022-09-06T07:38:20.870Z,21.43
2022-09-06T07:39:20.852Z,21.51
2022-09-06T07:40:20.835Z,21.61
2022-09-06T07:41:20.839Z,21.67
2022-09-06T07:42:20.830Z,21.73
2022-09-06T07:43:20.788Z,21.79
2022-09-06T07:44:20.786Z,21.83
2022-09-06T07:45:20.852Z,21.91
2022-09-06T07:46:20.829Z,21.99
2022-09-06T07:48:20.756Z,22.08
2022-09-06T07:49:20.724Z,22.17
2022-09-06T07:51:20.706Z,22.29
2022-09-06T07:53:30.646Z,22.41
2022-09-06T07:54:36.114Z,22.46
2022-09-06T07:55:20.702Z,22.49
2022-09-06T07:56:20.656Z,22.54
2022-09-06T07:57:20.653Z,22.59
2022-09-06T07:58:20.639Z,22.64
2022-09-06T07:59:20.661Z,22.70
2022-09-06T08:00:20.626Z,22.74
2022-09-06T08:01:20.657Z,22.79
2022-09-06T08:02:20.661Z,22.86
2022-09-06T08:03:20.589Z,22.89
2022-09-06T08:04:20.576Z,22.97
2022-09-06T08:06:20.593Z,23.07
2022-09-06T08:09:20.524Z,23.21
2022-09-06T08:10:20.531Z,23.26
2022-09-06T08:11:20.524Z,23.34
2022-09-06T08:12:20.504Z,23.39
2022-09-06T08:13:20.505Z,23.45
2022-09-06T08:14:20.529Z,23.56
2022-09-06T08:15:20.479Z,23.63
2022-09-06T08:16:20.656Z,23.74
2022-09-06T08:17:20.502Z,23.86
2022-09-06T08:18:20.612Z,23.96
2022-09-06T08:19:20.386Z,24.00
2022-09-06T08:20:20.480Z,24.06
2022-09-06T08:21:20.400Z,24.14
2022-09-06T08:22:20.438Z,24.21
2022-09-06T08:23:20.359Z,24.34
2022-09-06T08:24:20.350Z,24.52
2022-09-06T08:25:20.330Z,24.67
2022-09-06T08:26:20.348Z,24.83
2022-09-06T08:27:20.331Z,24.93
2022-09-06T08:28:20.321Z,24.99
2022-09-06T08:29:20.278Z,25.02
2022-09-06T08:30:20.334Z,25.04
2022-09-06T08:31:20.319Z,25.07
2022-09-06T08:32:20.286Z,25.05
2022-09-06T08:33:20.242Z,25.11
2022-09-06T08:34:20.270Z,25.17
2022-09-06T08:35:20.226Z,25.27
2022-09-06T08:36:20.255Z,25.36
2022-09-06T08:37:24.818Z,25.44
2022-09-06T08:38:20.194Z,25.44
2022-09-06T08:39:20.192Z,25.41
2022-09-06T08:40:20.273Z,25.45
2022-09-06T08:41:20.196Z,25.53
2022-09-06T08:42:20.135Z,25.63
2022-09-06T08:43:20.157Z,25.75
2022-09-06T08:45:20.119Z,25.97
2022-09-06T08:46:27.016Z,26.11
2022-09-06T08:47:20.097Z,26.34
2022-09-06T08:48:20.084Z,26.72
2022-09-06T08:49:20.177Z,27.35
2022-09-06T08:50:20.073Z,28.17
2022-09-06T08:51:20.059Z,28.94
2022-09-06T08:52:20.035Z,29.74
2022-09-06T08:53:20.081Z,30.48
2022-09-06T08:54:20.072Z,31.15
2022-09-06T08:55:19.990Z,31.76
2022-09-06T08:56:20.008Z,32.32
2022-09-06T08:57:20.005Z,32.50
2022-09-06T08:58:20.003Z,32.76
2022-09-06T08:59:19.967Z,32.88
2022-09-06T09:00:19.956Z,32.99
2022-09-06T09:01:19.985Z,33.02
2022-09-06T09:02:20.198Z,32.35
2022-09-06T09:03:19.952Z,32.25
2022-09-06T09:04:19.953Z,32.21
2022-09-06T09:05:19.887Z,32.40
2022-09-06T09:06:19.920Z,32.19
2022-09-06T09:07:19.860Z,32.81
2022-09-06T09:08:19.865Z,33.53
2022-09-06T09:09:19.861Z,33.79
2022-09-06T09:10:19.829Z,34.15
2022-09-06T09:11:19.833Z,34.78
2022-09-06T09:12:19.848Z,35.15
2022-09-06T09:13:19.842Z,35.17
2022-09-06T09:14:19.801Z,35.20
2022-09-06T09:15:19.778Z,35.09
2022-09-06T09:16:19.847Z,35.47
2022-09-06T09:17:19.821Z,35.61
2022-09-06T09:18:19.752Z,35.92
2022-09-06T09:19:19.760Z,36.13
2022-09-06T09:20:19.719Z,36.28
2022-09-06T09:21:19.738Z,36.38
2022-09-06T09:22:19.723Z,36.48
2022-09-06T09:23:19.697Z,36.33
2022-09-06T09:24:19.689Z,36.11
2022-09-06T09:25:19.678Z,35.36
2022-09-06T09:26:19.673Z,35.65
2022-09-06T09:27:19.663Z,36.03
2022-09-06T09:28:19.672Z,36.49
2022-09-06T09:29:23.984Z,37.02
2022-09-06T09:31:19.713Z,37.95
2022-09-06T09:32:19.598Z,38.28
2022-09-06T09:33:19.620Z,38.37
2022-09-06T09:34:19.653Z,38.74
2022-09-06T09:35:19.591Z,38.97
2022-09-06T09:36:19.558Z,39.24
2022-09-06T09:38:19.570Z,38.26
2022-09-06T09:39:19.642Z,38.58
2022-09-06T09:40:19.538Z,38.74
2022-09-06T09:41:19.535Z,38.89
2022-09-06T09:42:19.733Z,38.72
2022-09-06T09:43:19.511Z,38.43
2022-09-06T09:44:19.531Z,38.68
2022-09-06T09:45:19.504Z,38.95
2022-09-06T09:46:19.502Z,39.36
2022-09-06T09:47:19.446Z,39.46
2022-09-06T09:48:19.510Z,39.32
2022-09-06T09:49:19.458Z,39.47
2022-09-06T09:50:19.438Z,39.73
2022-09-06T09:51:26.158Z,40.10
2022-09-06T09:52:19.449Z,39.73
2022-09-06T09:53:19.455Z,39.57
2022-09-06T09:54:19.414Z,39.72
2022-09-06T09:55:19.382Z,39.51
2022-09-06T09:56:19.376Z,39.19
2022-09-06T09:57:19.352Z,38.52
2022-09-06T09:58:19.361Z,38.34
2022-09-06T09:59:22.957Z,37.93
2022-09-06T10:00:19.337Z,37.80
2022-09-06T10:01:19.363Z,37.75
2022-09-06T10:02:19.347Z,38.16
2022-09-06T10:03:19.420Z,38.50
2022-09-06T10:05:19.278Z,39.41
2022-09-06T10:07:19.347Z,40.13
2022-09-06T10:08:19.250Z,40.38
2022-09-06T10:09:19.354Z,40.72
2022-09-06T10:10:19.252Z,41.04
2022-09-06T10:11:19.249Z,40.94
2022-09-06T10:12:19.225Z,40.18
2022-09-06T10:13:19.217Z,40.07
2022-09-06T10:14:19.205Z,40.04
2022-09-06T10:15:19.187Z,39.68
2022-09-06T10:16:19.842Z,39.92
2022-09-06T10:17:19.173Z,40.48
2022-09-06T10:18:19.198Z,40.94
2022-09-06T10:19:19.201Z,41.26
2022-09-06T10:20:19.155Z,40.71
2022-09-06T10:21:19.144Z,40.28
2022-09-06T10:22:19.144Z,39.17
2022-09-06T10:24:28.107Z,38.98
2022-09-06T10:25:19.134Z,38.77
2022-09-06T10:26:19.101Z,38.84
2022-09-06T10:27:19.093Z,39.10
2022-09-06T10:28:19.108Z,39.27
2022-09-06T10:29:19.085Z,39.01
2022-09-06T10:30:19.085Z,38.37
2022-09-06T10:31:19.090Z,38.55
2022-09-06T10:32:19.027Z,39.20
2022-09-06T10:33:19.037Z,39.76
2022-09-06T10:34:19.011Z,40.02
2022-09-06T10:35:19.029Z,40.11
2022-09-06T10:36:19.553Z,40.57
2022-09-06T10:37:18.995Z,41.12
2022-09-06T10:38:19.024Z,41.63
2022-09-06T10:39:18.970Z,41.31
2022-09-06T10:40:18.959Z,40.98
2022-09-06T10:41:18.949Z,40.88
2022-09-06T10:42:18.965Z,40.36
2022-09-06T10:43:18.946Z,40.21
2022-09-06T10:44:18.955Z,40.41
2022-09-06T10:45:18.920Z,40.72
2022-09-06T10:46:18.960Z,41.26
2022-09-06T10:47:18.956Z,41.67
2022-09-06T10:48:18.900Z,42.04
2022-09-06T10:49:18.895Z,42.05
2022-09-06T10:50:18.919Z,42.34
2022-09-06T10:51:18.868Z,42.14
2022-09-06T10:52:18.848Z,41.44
2022-09-06T10:53:18.853Z,41.65
2022-09-06T10:54:19.062Z,41.83
2022-09-06T10:55:18.838Z,41.48
2022-09-06T10:56:18.832Z,40.98
2022-09-06T10:58:19.843Z,41.47
2022-09-06T11:00:18.785Z,41.63
2022-09-06T11:01:18.833Z,40.95
2022-09-06T11:02:19.096Z,41.14
2022-09-06T11:04:18.781Z,42.07
